Time;durP1;ratioP1;P1;durP2;ratioP2;P2;SDS_P1;SDS_P2;PMS_P1;PMS_P2;Temp;Humidity;BMP_temperature;BMP_pressure;BME280_temperature;BME280_humidity;BME280_pressure;Samples;Min_cycle;Max_cycle;Signal;HPM_P1;HPM_P2
2022/09/28 00:01:17;;;;;;;13.90;6.50;;;8.40;99.90;;;;;;5025793;28;20052;-86
2022/09/28 00:03:44;;;;;;;13.82;6.78;;;8.40;99.90;;;;;;5019600;28;20056;-82
2022/09/28 00:06:12;;;;;;;11.27;6.07;;;8.40;99.90;;;;;;4998712;28;20045;-85
2022/09/28 00:08:38;;;;;;;12.35;6.85;;;8.40;99.90;;;;;;5037614;28;20092;-82
2022/09/28 00:11:06;;;;;;;9.80;6.32;;;8.40;99.90;;;;;;5006602;28;20116;-82
2022/09/28 00:13:32;;;;;;;10.43;5.72;;;8.40;99.90;;;;;;5008280;28;20056;-82
2022/09/28 00:16:05;;;;;;;13.40;6.25;;;8.40;99.90;;;;;;5021019;28;20046;-82
2022/09/28 00:18:31;;;;;;;14.68;6.75;;;8.40;99.90;;;;;;5032510;28;20048;-81
2022/09/28 00:21:05;;;;;;;10.95;6.13;;;8.30;99.90;;;;;;5019023;28;20099;-85
2022/09/28 00:23:32;;;;;;;15.45;7.20;;;8.30;99.90;;;;;;4998735;28;20083;-81
2022/09/28 00:26:02;;;;;;;13.68;8.60;;;8.30;99.90;;;;;;5026105;28;20475;-82
2022/09/28 00:28:30;;;;;;;9.90;6.30;;;8.40;99.90;;;;;;5028675;28;20103;-82
2022/09/28 00:30:56;;;;;;;12.07;6.55;;;8.30;99.90;;;;;;4997177;28;20064;-82
2022/09/28 00:33:22;;;;;;;13.15;6.68;;;8.30;99.90;;;;;;5005570;28;20077;-82
2022/09/28 00:35:58;;;;;;;11.70;6.18;;;8.30;99.90;;;;;;5015705;28;20053;-82
2022/09/28 00:38:28;;;;;;;10.88;6.60;;;8.30;99.90;;;;;;5032381;28;20059;-82
2022/09/28 00:40:54;;;;;;;10.95;7.18;;;8.30;99.90;;;;;;5030844;28;20495;-82
2022/09/28 00:43:24;;;;;;;11.88;6.32;;;8.20;99.90;;;;;;5022197;28;20511;-82
2022/09/28 00:45:59;;;;;;;12.20;5.95;;;8.30;99.90;;;;;;5019803;28;20130;-82
2022/09/28 00:48:29;;;;;;;11.73;6.45;;;8.30;99.90;;;;;;5035319;28;20077;-83
2022/09/28 00:50:56;;;;;;;12.90;7.00;;;8.20;99.90;;;;;;5019459;28;20045;-82
2022/09/28 00:53:29;;;;;;;11.40;6.43;;;8.20;99.90;;;;;;5002388;28;20188;-82
2022/09/28 00:55:59;;;;;;;13.40;7.38;;;8.20;99.90;;;;;;5016528;28;20049;-82
2022/09/28 00:58:28;;;;;;;12.23;6.95;;;8.20;99.90;;;;;;4998572;28;20400;-82
2022/09/28 01:00:56;;;;;;;12.50;6.82;;;8.20;99.90;;;;;;5023562;28;20049;-84
2022/09/28 01:03:23;;;;;;;12.27;6.38;;;8.20;99.90;;;;;;4997902;28;20045;-82
2022/09/28 01:05:51;;;;;;;11.80;6.55;;;8.20;99.90;;;;;;5015048;28;20099;-82
2022/09/28 01:08:20;;;;;;;15.27;7.93;;;8.20;99.90;;;;;;5016599;28;20037;-82
2022/09/28 01:10:46;;;;;;;16.67;7.28;;;8.10;99.90;;;;;;5029607;28;20037;-82
2022/09/28 01:13:13;;;;;;;11.73;6.43;;;8.10;99.90;;;;;;4995148;28;20495;-81
2022/09/28 01:15:55;;;;;;;13.02;7.10;;;8.10;99.90;;;;;;5030783;28;20127;-82
2022/09/28 01:18:54;;;;;;;15.07;7.47;;;8.00;99.90;;;;;;5014707;28;20052;-82
2022/09/28 01:21:22;;;;;;;12.65;6.70;;;8.00;99.90;;;;;;5026618;28;20111;-82
2022/09/28 01:24:08;;;;;;;16.73;8.25;;;8.00;99.90;;;;;;5019402;28;20049;-82
2022/09/28 01:27:11;;;;;;;14.38;7.35;;;7.90;99.90;;;;;;5001574;28;20391;-83
2022/09/28 01:29:50;;;;;;;12.90;7.00;;;8.00;99.90;;;;;;5021530;28;20180;-82
2022/09/28 01:32:26;;;;;;;11.70;6.80;;;8.00;99.90;;;;;;5004759;28;20049;-81
2022/09/28 01:34:57;;;;;;;18.33;7.78;;;8.10;99.90;;;;;;5022435;28;20111;-82
2022/09/28 01:37:30;;;;;;;18.10;7.53;;;8.10;99.90;;;;;;5024634;28;20400;-83
2022/09/28 01:40:01;;;;;;;16.13;7.63;;;8.20;99.90;;;;;;5032749;28;20057;-82
2022/09/28 01:42:30;;;;;;;13.38;6.88;;;8.20;99.90;;;;;;5025622;28;20442;-82
2022/09/28 01:45:03;;;;;;;12.95;7.57;;;8.20;99.90;;;;;;5016821;28;20045;-82
2022/09/28 01:47:34;;;;;;;16.33;8.13;;;8.20;99.90;;;;;;5024415;28;20069;-83
2022/09/28 01:50:09;;;;;;;14.37;9.23;;;8.20;99.90;;;;;;5034871;28;20057;-82
2022/09/28 01:52:52;;;;;;;22.85;10.43;;;8.20;99.90;;;;;;5019082;28;20192;-82
2022/09/28 01:55:42;;;;;;;19.85;10.30;;;8.20;99.90;;;;;;5031217;28;20140;-83
2022/09/28 01:58:25;;;;;;;16.08;8.90;;;8.10;99.90;;;;;;5009220;28;20048;-82
2022/09/28 02:01:03;;;;;;;18.33;9.23;;;8.10;99.90;;;;;;5031119;28;20157;-82
2022/09/28 02:03:41;;;;;;;21.00;9.40;;;8.10;99.90;;;;;;5027239;28;20052;-82
2022/09/28 02:06:20;;;;;;;19.38;9.50;;;8.10;99.90;;;;;;5032285;28;20049;-83
2022/09/28 02:08:53;;;;;;;19.65;10.45;;;8.00;99.90;;;;;;5017745;28;20491;-82
2022/09/28 02:11:20;;;;;;;16.98;9.32;;;7.90;99.90;;;;;;5017659;28;20063;-82
2022/09/28 02:13:51;;;;;;;20.98;9.95;;;7.90;99.90;;;;;;5001567;28;20049;-83
2022/09/28 02:16:39;;;;;;;18.85;10.18;;;7.90;99.90;;;;;;5016341;28;20102;-82
2022/09/28 02:19:07;;;;;;;17.77;9.50;;;7.90;99.90;;;;;;5012879;28;20135;-82
2022/09/28 02:21:57;;;;;;;22.13;10.50;;;7.90;99.90;;;;;;4991364;28;20057;-82
2022/09/28 02:24:36;;;;;;;16.70;9.07;;;7.90;99.90;;;;;;5017151;28;20050;-82
2022/09/28 02:27:18;;;;;;;22.80;11.43;;;7.80;99.90;;;;;;5021099;28;20060;-82
2022/09/28 02:29:44;;;;;;;21.85;10.05;;;7.80;99.90;;;;;;5022139;28;20045;-82
2022/09/28 02:32:10;;;;;;;22.80;10.38;;;7.70;99.90;;;;;;5008124;28;20049;-82
2022/09/28 02:34:35;;;;;;;18.08;9.80;;;7.80;99.90;;;;;;5015055;28;20072;-82
2022/09/28 02:37:02;;;;;;;19.17;10.45;;;7.60;99.90;;;;;;5012462;28;20130;-84
2022/09/28 02:39:27;;;;;;;18.20;9.90;;;7.60;99.90;;;;;;4996481;28;20312;-82
2022/09/28 02:42:31;;;;;;;20.35;10.63;;;7.70;99.90;;;;;;5006520;28;20048;-82
2022/09/28 02:45:04;;;;;;;23.05;9.20;;;7.70;99.90;;;;;;4999158;28;20053;-82
2022/09/28 02:47:39;;;;;;;19.83;10.50;;;7.60;99.90;;;;;;5027812;28;20533;-82
2022/09/28 02:50:34;;;;;;;20.23;10.68;;;7.60;99.90;;;;;;5009420;28;20052;-82
2022/09/28 02:53:18;;;;;;;20.30;9.68;;;7.60;99.90;;;;;;5011960;28;20087;-83
2022/09/28 02:55:59;;;;;;;20.90;10.90;;;7.60;99.90;;;;;;5029684;28;20508;-82
2022/09/28 02:58:46;;;;;;;19.67;10.43;;;7.60;99.90;;;;;;5010578;28;20374;-81
2022/09/28 03:01:23;;;;;;;18.75;9.65;;;7.70;99.90;;;;;;4990737;28;20054;-81
2022/09/28 03:03:51;;;;;;;19.08;10.63;;;7.70;99.90;;;;;;5027382;28;20045;-82
2022/09/28 03:06:44;;;;;;;20.70;9.73;;;7.70;99.90;;;;;;5031878;28;20041;-82
2022/09/28 03:09:36;;;;;;;20.10;10.98;;;7.70;99.90;;;;;;5023665;28;20500;-81
2022/09/28 03:12:09;;;;;;;22.70;10.80;;;7.70;99.90;;;;;;5040959;28;20055;-81
2022/09/28 03:14:35;;;;;;;19.42;10.23;;;7.70;99.90;;;;;;5026861;28;20522;-81
2022/09/28 03:17:01;;;;;;;29.83;11.75;;;7.80;99.90;;;;;;5020606;28;20050;-81
2022/09/28 03:19:31;;;;;;;21.15;10.65;;;7.80;99.90;;;;;;5025757;28;20050;-82
2022/09/28 03:21:57;;;;;;;17.60;9.38;;;7.80;99.90;;;;;;5006768;28;20038;-82
2022/09/28 03:24:23;;;;;;;18.60;10.10;;;7.90;99.90;;;;;;5005500;28;20396;-82
2022/09/28 03:26:49;;;;;;;22.13;10.15;;;7.80;99.90;;;;;;5012271;28;20116;-82
2022/09/28 03:29:15;;;;;;;16.60;9.25;;;7.80;99.90;;;;;;5005205;28;20079;-82
2022/09/28 03:31:41;;;;;;;17.83;10.05;;;7.90;99.90;;;;;;5011985;28;20057;-82
2022/09/28 03:34:07;;;;;;;16.45;9.57;;;7.90;99.90;;;;;;4998220;28;20045;-82
2022/09/28 03:36:32;;;;;;;16.45;9.43;;;7.90;99.90;;;;;;5019787;28;20056;-81
2022/09/28 03:38:58;;;;;;;18.35;9.48;;;7.90;99.90;;;;;;5018782;28;20088;-83
2022/09/28 03:41:26;;;;;;;20.67;9.38;;;8.00;99.90;;;;;;5018538;28;20446;-82
2022/09/28 03:43:52;;;;;;;20.45;10.25;;;8.10;99.90;;;;;;5031874;28;20076;-82
2022/09/28 03:46:18;;;;;;;21.80;10.55;;;8.00;99.90;;;;;;5016535;28;20059;-82
2022/09/28 03:48:44;;;;;;;20.23;10.52;;;8.00;99.90;;;;;;5026128;28;20124;-81
2022/09/28 03:51:11;;;;;;;17.52;10.13;;;8.10;99.90;;;;;;5027277;28;20144;-82
2022/09/28 03:53:37;;;;;;;20.92;10.82;;;8.10;99.90;;;;;;5016238;28;20099;-82
2022/09/28 03:56:14;;;;;;;22.63;10.57;;;8.10;99.90;;;;;;5030423;28;20040;-82
2022/09/28 03:58:40;;;;;;;19.27;9.75;;;8.10;99.90;;;;;;5023771;28;20045;-84
2022/09/28 04:01:11;;;;;;;19.80;10.32;;;8.10;99.90;;;;;;5040899;28;20438;-82
2022/09/28 04:03:36;;;;;;;18.40;10.35;;;8.10;99.90;;;;;;5029480;28;20060;-82
2022/09/28 04:06:02;;;;;;;26.77;12.20;;;8.10;99.90;;;;;;5016854;28;20056;-83
2022/09/28 04:08:28;;;;;;;20.92;10.55;;;8.10;99.90;;;;;;5016438;28;20132;-82
2022/09/28 04:10:58;;;;;;;43.38;14.05;;;8.00;99.90;;;;;;5028797;28;20438;-83
2022/09/28 04:13:25;;;;;;;23.05;10.50;;;8.10;99.90;;;;;;5024283;28;20057;-83
2022/09/28 04:15:53;;;;;;;28.02;12.45;;;8.20;99.90;;;;;;5048317;28;20050;-81
2022/09/28 04:18:19;;;;;;;23.42;11.82;;;8.10;99.90;;;;;;5041604;28;20061;-81
2022/09/28 04:20:46;;;;;;;24.42;12.00;;;8.10;99.90;;;;;;5009915;28;20079;-84
2022/09/28 04:23:13;;;;;;;23.60;11.50;;;8.10;99.90;;;;;;5013697;28;20046;-83
2022/09/28 04:25:39;;;;;;;24.02;12.25;;;8.20;99.90;;;;;;5027999;28;20080;-82
2022/09/28 04:30:49;;;;;;;20.40;10.48;;;8.20;99.90;;;;;;4965079;28;20141;-82
2022/09/28 04:33:15;;;;;;;22.92;11.52;;;8.10;99.90;;;;;;5015158;28;20373;-82
2022/09/28 04:35:40;;;;;;;24.05;11.30;;;8.10;99.90;;;;;;5030735;28;20037;-84
2022/09/28 04:38:06;;;;;;;27.23;12.52;;;8.20;99.90;;;;;;4999770;28;20091;-81
2022/09/28 04:40:32;;;;;;;28.13;12.00;;;8.20;99.90;;;;;;5012942;28;20067;-83
2022/09/28 04:42:57;;;;;;;28.63;12.75;;;8.20;99.90;;;;;;4972194;28;20049;-82
2022/09/28 04:45:27;;;;;;;27.48;12.35;;;8.20;99.90;;;;;;5041679;28;20052;-82
2022/09/28 04:47:53;;;;;;;44.28;12.55;;;8.20;99.90;;;;;;5006479;28;20083;-82
2022/09/28 04:50:19;;;;;;;23.27;10.55;;;8.20;99.90;;;;;;5010756;28;20048;-84
2022/09/28 04:52:45;;;;;;;27.02;11.13;;;8.20;99.90;;;;;;4989238;28;20072;-86
2022/09/28 04:55:14;;;;;;;22.70;12.07;;;8.20;99.90;;;;;;5011584;28;20072;-82
2022/09/28 04:57:39;;;;;;;20.42;10.25;;;8.20;99.90;;;;;;5017825;28;20104;-85
2022/09/28 05:00:07;;;;;;;99.65;14.02;;;8.20;99.90;;;;;;5008324;28;20041;-83
2022/09/28 05:02:32;;;;;;;21.48;9.38;;;8.20;99.90;;;;;;5019904;28;20050;-82
2022/09/28 05:04:58;;;;;;;54.15;12.25;;;8.10;99.90;;;;;;5030675;28;20492;-85
2022/09/28 05:07:25;;;;;;;26.35;11.85;;;8.10;99.90;;;;;;5009132;28;20083;-82
2022/09/28 05:09:51;;;;;;;27.05;10.27;;;8.00;99.90;;;;;;5027187;28;20085;-85
2022/09/28 05:12:17;;;;;;;170.38;20.02;;;8.00;99.90;;;;;;5012540;28;20570;-82
2022/09/28 05:14:43;;;;;;;16.88;9.35;;;8.00;99.90;;;;;;5006118;28;20048;-81
2022/09/28 05:17:09;;;;;;;44.55;12.60;;;8.00;99.90;;;;;;4999033;28;20139;-81
2022/09/28 05:19:34;;;;;;;29.27;10.23;;;7.90;99.90;;;;;;5013975;28;20491;-81
2022/09/28 05:22:03;;;;;;;24.85;10.05;;;7.90;99.90;;;;;;4997866;28;20057;-81
2022/09/28 05:24:32;;;;;;;66.55;13.48;;;7.90;99.90;;;;;;5039644;28;20042;-82
2022/09/28 05:26:57;;;;;;;21.80;10.90;;;7.90;99.90;;;;;;5007926;28;20050;-81
2022/09/28 05:29:23;;;;;;;19.67;9.88;;;7.90;99.90;;;;;;5030062;28;20126;-82
2022/09/28 05:31:49;;;;;;;97.10;13.77;;;8.00;99.90;;;;;;5007266;28;20054;-84
2022/09/28 05:34:14;;;;;;;23.40;10.68;;;8.00;99.90;;;;;;4992428;28;20068;-83
2022/09/28 05:36:45;;;;;;;21.92;10.30;;;8.10;99.90;;;;;;5013330;28;20545;-85
2022/09/28 05:39:11;;;;;;;46.53;12.07;;;8.00;99.90;;;;;;4998096;28;20084;-82
2022/09/28 05:41:36;;;;;;;54.13;12.45;;;8.00;99.90;;;;;;4968906;28;1112415;-82
2022/09/28 05:44:02;;;;;;;22.23;10.40;;;8.00;99.90;;;;;;5010631;28;20148;-81
2022/09/28 05:46:28;;;;;;;50.05;12.18;;;7.90;99.90;;;;;;5014274;28;20055;-82
2022/09/28 05:48:54;;;;;;;149.77;18.02;;;8.00;99.90;;;;;;5013662;28;20050;-82
2022/09/28 05:51:20;;;;;;;155.68;19.42;;;8.00;99.90;;;;;;5014431;28;20076;-81
2022/09/28 05:53:48;;;;;;;27.77;11.23;;;7.90;99.90;;;;;;4995812;28;20057;-87
2022/09/28 05:56:14;;;;;;;26.15;11.68;;;8.00;99.90;;;;;;5012569;28;20046;-81
2022/09/28 05:58:39;;;;;;;25.40;12.45;;;8.00;99.90;;;;;;5030706;28;20075;-81
2022/09/28 06:01:05;;;;;;;26.27;12.45;;;7.90;99.90;;;;;;4998366;28;20088;-82
2022/09/28 06:03:30;;;;;;;25.52;11.77;;;8.00;99.90;;;;;;4994801;28;20188;-81
2022/09/28 06:06:00;;;;;;;107.43;15.90;;;8.00;99.90;;;;;;4995253;28;20111;-82
2022/09/28 06:08:25;;;;;;;70.95;14.35;;;8.10;99.90;;;;;;4995107;28;20049;-83
2022/09/28 06:10:51;;;;;;;33.28;12.38;;;8.10;99.90;;;;;;5000138;28;20045;-82
2022/09/28 06:13:17;;;;;;;26.45;12.27;;;8.10;99.90;;;;;;5030178;28;20040;-82
2022/09/28 06:15:45;;;;;;;27.10;11.25;;;8.10;99.90;;;;;;4998236;28;20076;-82
2022/09/28 06:18:15;;;;;;;32.15;11.88;;;8.10;99.90;;;;;;4998474;28;20053;-83
2022/09/28 06:20:41;;;;;;;30.35;12.80;;;8.20;99.90;;;;;;5012955;28;20496;-82
2022/09/28 06:23:11;;;;;;;125.82;55.03;;;8.20;99.90;;;;;;5018054;28;20045;-82
2022/09/28 06:25:37;;;;;;;29.05;13.70;;;8.30;99.90;;;;;;5000152;28;20124;-83
2022/09/28 06:28:09;;;;;;;34.28;12.82;;;8.40;99.90;;;;;;5011541;28;20049;-82
2022/09/28 06:30:37;;;;;;;31.27;13.60;;;8.40;99.90;;;;;;5052091;28;20049;-83
2022/09/28 06:33:05;;;;;;;39.67;13.07;;;8.30;99.90;;;;;;5010697;28;20044;-82
2022/09/28 06:35:31;;;;;;;37.58;12.95;;;8.40;99.90;;;;;;5046637;28;20119;-82
2022/09/28 06:37:58;;;;;;;27.73;12.93;;;8.40;99.90;;;;;;5032366;28;20045;-82
2022/09/28 06:40:24;;;;;;;29.15;12.77;;;8.40;99.90;;;;;;5001537;28;20048;-82
2022/09/28 06:42:57;;;;;;;28.70;12.20;;;8.50;99.90;;;;;;5052114;28;20049;-83
2022/09/28 06:45:24;;;;;;;29.02;12.90;;;8.60;99.90;;;;;;4997745;28;20037;-83
2022/09/28 06:47:58;;;;;;;28.30;11.95;;;8.60;99.90;;;;;;5026383;28;20546;-82
2022/09/28 06:50:32;;;;;;;25.75;12.23;;;8.70;99.90;;;;;;5027427;28;20053;-82
2022/09/28 06:52:58;;;;;;;28.90;13.77;;;8.70;99.90;;;;;;4995049;28;20092;-81
2022/09/28 06:55:24;;;;;;;25.48;12.10;;;8.80;99.90;;;;;;5011824;28;20477;-82
2022/09/28 06:58:01;;;;;;;25.10;11.73;;;8.80;99.90;;;;;;5012077;28;20050;-81
2022/09/28 07:00:28;;;;;;;26.60;12.60;;;8.90;99.90;;;;;;5000590;28;20045;-82
2022/09/28 07:02:54;;;;;;;30.42;12.38;;;8.90;99.90;;;;;;5000641;28;20364;-82
2022/09/28 07:05:25;;;;;;;25.38;12.82;;;8.90;99.90;;;;;;5002305;28;20038;-85
2022/09/28 07:07:55;;;;;;;29.67;13.38;;;8.90;99.90;;;;;;5010656;28;20491;-82
2022/09/28 07:10:23;;;;;;;30.67;12.90;;;8.80;99.90;;;;;;5012300;28;20046;-82
2022/09/28 07:12:52;;;;;;;26.42;11.57;;;8.90;99.90;;;;;;5003176;28;20085;-81
2022/09/28 07:15:19;;;;;;;21.85;10.63;;;9.00;99.90;;;;;;5010369;28;20468;-82
2022/09/28 07:17:45;;;;;;;22.38;10.52;;;9.10;99.90;;;;;;5001334;28;20053;-84
2022/09/28 07:20:11;;;;;;;27.27;12.07;;;9.40;99.90;;;;;;4995751;28;20045;-83
2022/09/28 07:22:37;;;;;;;22.67;10.93;;;9.70;99.90;;;;;;5014233;28;20068;-83
2022/09/28 07:25:07;;;;;;;20.55;9.55;;;10.30;99.90;;;;;;5013877;28;20048;-82
2022/09/28 07:27:35;;;;;;;24.00;11.25;;;10.70;99.90;;;;;;5002437;28;20571;-82
2022/09/28 07:30:03;;;;;;;22.55;11.05;;;10.80;99.90;;;;;;5033449;28;20044;-83
2022/09/28 07:32:30;;;;;;;22.50;11.45;;;10.80;99.90;;;;;;5023622;28;20055;-82
2022/09/28 07:34:56;;;;;;;22.05;11.30;;;10.80;99.90;;;;;;5029337;28;20058;-83
2022/09/28 07:37:23;;;;;;;22.65;11.45;;;10.70;99.90;;;;;;5008163;28;20061;-83
2022/09/28 07:42:33;;;;;;;24.83;11.50;;;10.50;99.90;;;;;;5033021;28;20054;-82
2022/09/28 07:44:59;;;;;;;22.67;11.57;;;10.40;99.90;;;;;;5038122;28;20044;-81
2022/09/28 07:47:26;;;;;;;21.80;11.05;;;10.40;99.90;;;;;;5031679;28;20047;-82
2022/09/28 07:49:57;;;;;;;21.38;11.43;;;10.50;99.90;;;;;;5026006;28;20522;-83
2022/09/28 07:52:25;;;;;;;19.65;10.82;;;10.50;99.90;;;;;;5048802;28;20106;-83
2022/09/28 07:54:57;;;;;;;18.13;9.80;;;10.50;99.90;;;;;;5033593;28;20053;-82
2022/09/28 07:57:23;;;;;;;19.17;10.68;;;10.50;99.90;;;;;;5026977;28;20053;-82
2022/09/28 07:59:49;;;;;;;21.92;9.80;;;10.40;99.90;;;;;;5025846;28;20472;-82
2022/09/28 08:02:19;;;;;;;21.58;9.43;;;10.40;99.90;;;;;;5000490;28;20499;-82
2022/09/28 08:04:49;;;;;;;23.20;11.25;;;10.40;99.90;;;;;;5016867;28;20077;-82
2022/09/28 08:07:17;;;;;;;20.10;10.18;;;10.50;99.90;;;;;;5041408;28;20073;-82
2022/09/28 08:09:44;;;;;;;23.00;11.15;;;10.60;99.90;;;;;;5014140;28;20068;-82
2022/09/28 08:12:12;;;;;;;18.55;9.38;;;10.80;99.90;;;;;;5041642;28;20410;-83
2022/09/28 08:14:38;;;;;;;17.70;9.20;;;11.00;99.90;;;;;;5016032;28;20057;-82
2022/09/28 08:17:04;;;;;;;17.30;8.95;;;11.00;99.90;;;;;;5031290;28;20055;-82
2022/09/28 08:21:43;;;;;;;18.55;8.48;;;11.00;99.90;;;;;;5033775;28;20087;-83
2022/09/28 08:22:18;;;;;;;14.32;8.80;;;11.10;99.90;;;;;;5023634;28;20049;-82
2022/09/28 08:24:44;;;;;;;16.48;8.63;;;11.20;99.90;;;;;;5033525;28;20112;-82
2022/09/28 08:27:11;;;;;;;15.60;8.10;;;11.20;99.90;;;;;;5016708;28;20053;-83
2022/09/28 08:29:37;;;;;;;16.55;8.63;;;11.30;99.90;;;;;;5040514;28;20106;-82
2022/09/28 08:32:05;;;;;;;13.77;7.63;;;11.40;99.90;;;;;;5043616;28;20044;-82
2022/09/28 08:34:30;;;;;;;14.85;8.40;;;11.40;99.90;;;;;;5048877;28;20068;-82
2022/09/28 08:36:56;;;;;;;12.05;6.82;;;11.50;99.90;;;;;;5018723;28;20459;-83
2022/09/28 08:39:22;;;;;;;13.55;7.30;;;11.60;99.90;;;;;;5016409;28;20487;-82
2022/09/28 08:41:58;;;;;;;12.93;7.85;;;11.60;99.90;;;;;;5032438;28;20496;-82
2022/09/28 08:44:25;;;;;;;14.18;7.32;;;11.70;99.90;;;;;;5011560;28;20045;-85
2022/09/28 08:46:59;;;;;;;12.88;7.30;;;11.80;99.90;;;;;;5034317;28;20045;-82
2022/09/28 08:49:35;;;;;;;10.65;6.18;;;11.80;99.90;;;;;;5016389;28;20494;-82
2022/09/28 08:52:12;;;;;;;9.65;5.53;;;12.00;99.90;;;;;;5026514;28;20465;-83
2022/09/28 08:54:57;;;;;;;11.50;5.70;;;12.10;99.90;;;;;;5032063;28;20044;-82
2022/09/28 08:57:47;;;;;;;14.15;6.93;;;12.00;99.90;;;;;;5032500;28;20044;-83
2022/09/28 09:00:40;;;;;;;9.65;4.07;;;12.10;99.90;;;;;;5033691;28;20136;-83
2022/09/28 09:03:10;;;;;;;6.30;4.13;;;12.20;99.90;;;;;;5020831;28;20045;-83
2022/09/28 09:05:48;;;;;;;8.88;3.92;;;12.40;99.90;;;;;;5036667;28;20550;-83
2022/09/28 09:08:34;;;;;;;5.57;3.92;;;12.50;99.90;;;;;;5015831;28;20048;-83
2022/09/28 09:11:13;;;;;;;8.40;4.53;;;12.60;99.90;;;;;;5015861;28;20099;-83
2022/09/28 09:13:44;;;;;;;7.88;5.18;;;12.70;99.90;;;;;;4999427;28;20042;-82
2022/09/28 09:16:13;;;;;;;6.50;3.97;;;12.90;99.90;;;;;;5022695;28;20069;-82
2022/09/28 09:19:08;;;;;;;7.43;3.88;;;13.00;99.90;;;;;;5019058;28;20056;-82
2022/09/28 09:21:51;;;;;;;8.82;4.55;;;13.00;99.90;;;;;;5010510;28;20052;-83
2022/09/28 09:24:32;;;;;;;6.35;3.83;;;13.10;99.90;;;;;;5014474;28;20037;-84
2022/09/28 09:27:05;;;;;;;6.88;3.20;;;13.10;99.90;;;;;;5049940;28;20076;-83
2022/09/28 09:29:50;;;;;;;6.28;3.55;;;13.20;99.90;;;;;;5009664;28;20486;-83
2022/09/28 09:32:45;;;;;;;5.85;3.47;;;13.40;99.90;;;;;;5037071;28;20128;-85
2022/09/28 09:35:26;;;;;;;8.30;4.35;;;13.40;99.90;;;;;;5033526;28;20041;-83
2022/09/28 09:38:06;;;;;;;6.88;3.15;;;13.50;99.90;;;;;;5002909;28;20380;-82
2022/09/28 09:40:42;;;;;;;5.35;2.47;;;13.30;99.90;;;;;;5018812;28;20045;-86
2022/09/28 09:43:35;;;;;;;4.88;2.88;;;13.30;99.90;;;;;;5027446;28;20128;-83
2022/09/28 09:46:07;;;;;;;5.55;2.95;;;13.30;99.90;;;;;;5018856;28;20107;-83
2022/09/28 09:48:43;;;;;;;9.43;3.85;;;13.40;99.90;;;;;;5009257;28;20060;-83
2022/09/28 09:51:34;;;;;;;11.82;5.45;;;13.40;99.90;;;;;;5021921;28;20146;-83
2022/09/28 09:54:30;;;;;;;6.78;3.17;;;13.60;99.90;;;;;;5026442;28;20094;-83
2022/09/28 09:57:06;;;;;;;7.32;2.92;;;14.20;99.90;;;;;;5039714;28;20109;-83
2022/09/28 09:59:37;;;;;;;29.17;17.30;;;15.20;99.90;;;;;;5021044;28;20490;-85
2022/09/28 10:02:24;;;;;;;5.35;3.10;;;15.70;99.90;;;;;;5025503;28;20079;-84
2022/09/28 10:04:55;;;;;;;10.18;3.95;;;15.50;99.90;;;;;;5024280;28;20071;-84
2022/09/28 10:07:27;;;;;;;3.75;2.38;;;15.10;99.90;;;;;;5024552;28;20037;-83
2022/09/28 10:09:57;;;;;;;4.32;2.72;;;14.70;99.90;;;;;;5020213;28;20395;-83
2022/09/28 10:12:23;;;;;;;5.90;2.40;;;14.40;99.90;;;;;;5038374;28;20520;-85
2022/09/28 10:14:49;;;;;;;5.25;2.65;;;14.30;99.90;;;;;;5039316;28;20041;-84
2022/09/28 10:17:18;;;;;;;6.15;2.92;;;14.00;99.90;;;;;;5032480;28;20514;-83
2022/09/28 10:19:44;;;;;;;4.47;2.60;;;13.90;99.90;;;;;;5019891;28;20045;-84
2022/09/28 10:22:16;;;;;;;5.72;2.95;;;13.80;99.90;;;;;;5023915;28;20042;-86
2022/09/28 10:24:48;;;;;;;4.00;2.50;;;13.90;99.90;;;;;;5024731;28;20132;-86
2022/09/28 10:27:18;;;;;;;3.30;2.15;;;13.90;99.90;;;;;;5042826;28;20036;-85
2022/09/28 10:30:10;;;;;;;2.67;1.83;;;14.00;99.90;;;;;;5035871;28;20049;-83
2022/09/28 10:32:44;;;;;;;3.10;1.90;;;14.20;99.90;;;;;;5003709;28;20049;-84
2022/09/28 10:35:22;;;;;;;3.65;1.60;;;14.30;99.90;;;;;;5035017;28;20468;-86
2022/09/28 10:37:54;;;;;;;2.95;1.40;;;14.30;99.90;;;;;;5015890;28;20483;-89
2022/09/28 10:40:30;;;;;;;4.78;1.63;;;14.30;99.90;;;;;;5034186;28;20547;-84
2022/09/28 10:43:01;;;;;;;3.58;1.65;;;14.30;99.90;;;;;;5037719;28;20088;-83
2022/09/28 10:45:33;;;;;;;3.72;1.90;;;14.10;99.90;;;;;;5032589;28;20460;-85
2022/09/28 10:48:00;;;;;;;5.18;2.10;;;14.00;99.90;;;;;;5038941;28;20044;-83
2022/09/28 10:50:27;;;;;;;2.22;1.45;;;13.90;99.90;;;;;;5032201;28;20060;-84
2022/09/28 10:52:53;;;;;;;3.40;1.35;;;13.80;99.90;;;;;;5006986;28;20092;-83
2022/09/28 10:55:32;;;;;;;1.92;1.20;;;13.80;99.90;;;;;;5026312;28;20076;-83
2022/09/28 10:58:23;;;;;;;2.47;1.10;;;14.10;99.90;;;;;;5008965;28;20491;-83
2022/09/28 11:00:49;;;;;;;3.10;0.68;;;14.40;99.90;;;;;;5022152;28;20475;-83
2022/09/28 11:03:26;;;;;;;1.95;0.52;;;14.60;99.90;;;;;;5010650;28;20038;-84
2022/09/28 11:06:04;;;;;;;2.35;1.00;;;14.80;99.90;;;;;;5025831;28;20045;-85
2022/09/28 11:08:38;;;;;;;4.30;0.70;;;14.90;99.90;;;;;;5005026;28;20053;-86
2022/09/28 11:11:15;;;;;;;1.02;0.80;;;15.00;99.90;;;;;;5026475;28;20041;-84
2022/09/28 11:13:47;;;;;;;1.20;0.50;;;15.10;99.90;;;;;;5023047;28;20048;-84
2022/09/28 11:16:24;;;;;;;1.65;0.80;;;15.10;99.90;;;;;;5028179;28;20131;-84
2022/09/28 11:18:49;;;;;;;2.25;0.93;;;15.10;99.90;;;;;;5044333;28;20049;-84
2022/09/28 11:21:20;;;;;;;3.88;1.08;;;15.10;99.90;;;;;;5005243;28;20180;-83
2022/09/28 11:24:06;;;;;;;1.25;0.93;;;15.00;99.90;;;;;;5016970;28;20053;-84
2022/09/28 11:26:39;;;;;;;3.17;0.90;;;15.00;99.90;;;;;;5040108;28;20048;-83
2022/09/28 11:29:06;;;;;;;1.38;1.00;;;15.00;99.90;;;;;;5023749;28;20056;-83
2022/09/28 11:31:34;;;;;;;2.00;0.85;;;15.00;99.90;;;;;;5024836;28;20095;-88
2022/09/28 11:34:12;;;;;;;1.55;1.02;;;15.30;99.90;;;;;;5022952;28;20057;-85
2022/09/28 11:36:58;;;;;;;2.03;0.80;;;15.50;99.90;;;;;;5026428;28;20127;-84
2022/09/28 11:39:34;;;;;;;1.00;0.75;;;15.90;99.90;;;;;;5009023;28;20058;-85
2022/09/28 11:42:18;;;;;;;3.15;0.98;;;16.10;99.90;;;;;;5020241;28;20053;-84
2022/09/28 11:44:48;;;;;;;1.75;0.70;;;16.10;99.90;;;;;;5001446;28;20160;-84
2022/09/28 11:47:19;;;;;;;2.47;1.00;;;16.20;99.90;;;;;;5041015;28;20510;-85
2022/09/28 11:50:00;;;;;;;2.00;1.05;;;16.20;99.90;;;;;;5003526;28;20053;-85
2022/09/28 11:52:33;;;;;;;2.60;0.73;;;16.10;99.90;;;;;;5039028;28;20146;-85
2022/09/28 11:55:13;;;;;;;1.45;0.93;;;15.90;99.90;;;;;;5007009;28;20048;-87
2022/09/28 11:57:44;;;;;;;1.45;0.90;;;15.70;99.90;;;;;;5040477;28;20163;-85
2022/09/28 12:00:23;;;;;;;1.58;0.30;;;15.60;99.90;;;;;;5044973;28;20060;-84
2022/09/28 12:03:30;;;;;;;0.70;0.40;;;15.30;99.90;;;;;;5030115;28;20132;-84
2022/09/28 12:06:07;;;;;;;1.15;0.40;;;15.00;99.90;;;;;;5010106;28;20124;-84
2022/09/28 12:08:38;;;;;;;0.20;0.20;;;14.80;99.90;;;;;;5043728;28;20056;-85
2022/09/28 12:11:14;;;;;;;0.52;0.30;;;14.60;99.90;;;;;;5026805;28;20380;-84
2022/09/28 12:13:44;;;;;;;0.32;0.30;;;14.40;99.90;;;;;;5021476;28;20485;-84
2022/09/28 12:16:26;;;;;;;0.47;0.47;;;14.20;99.90;;;;;;5010475;28;20474;-85
2022/09/28 12:18:55;;;;;;;;;;;14.10;99.90;;;;;;5002342;28;20053;-85
2022/09/28 12:21:26;;;;;;;1.48;0.52;;;13.90;99.90;;;;;;5011749;28;19925;-86
2022/09/28 12:23:57;;;;;;;0.30;0.30;;;13.90;99.90;;;;;;5013524;28;20041;-85
2022/09/28 12:26:39;;;;;;;2.75;0.38;;;14.00;99.90;;;;;;5016923;28;20076;-85
2022/09/28 12:29:14;;;;;;;1.75;0.40;;;14.30;99.90;;;;;;4995350;28;20433;-85
2022/09/28 12:31:51;;;;;;;0.35;0.20;;;14.70;99.90;;;;;;5031984;28;20049;-86
2022/09/28 12:34:17;;;;;;;0.25;0.25;;;15.00;99.90;;;;;;5016237;28;20080;-86
2022/09/28 12:36:48;;;;;;;0.88;0.30;;;15.30;99.90;;;;;;5007807;28;21369;-85
2022/09/28 12:39:48;;;;;;;2.17;0.30;;;15.70;99.90;;;;;;5014072;28;20545;-85
2022/09/28 12:42:45;;;;;;;0.30;0.30;;;16.20;99.90;;;;;;5015092;28;20049;-85
2022/09/28 12:45:19;;;;;;;1.65;0.32;;;16.30;99.90;;;;;;5012786;28;20037;-86
2022/09/28 12:48:03;;;;;;;1.13;0.40;;;16.40;99.90;;;;;;5019522;28;20179;-86
2022/09/28 12:50:59;;;;;;;0.57;0.30;;;16.20;99.90;;;;;;5028740;28;20053;-86
2022/09/28 12:53:45;;;;;;;1.08;0.40;;;16.00;99.90;;;;;;5026096;28;20045;-84
2022/09/28 12:56:21;;;;;;;0.47;0.20;;;15.70;99.90;;;;;;5012136;28;20124;-89
2022/09/28 12:59:25;;;;;;;0.82;0.40;;;15.30;99.90;;;;;;5008693;28;20061;-85
2022/09/28 13:02:37;;;;;;;0.30;0.20;;;15.00;99.90;;;;;;5027422;28;20056;-86
2022/09/28 13:05:15;;;;;;;0.98;0.55;;;14.60;99.90;;;;;;5018581;28;20051;-85
2022/09/28 13:07:59;;;;;;;0.70;0.52;;;14.30;99.90;;;;;;5014934;28;20049;-84
2022/09/28 13:10:34;;;;;;;0.65;0.30;;;14.10;99.90;;;;;;5040477;28;20685;-90
2022/09/28 13:13:21;;;;;;;1.13;0.40;;;13.90;99.90;;;;;;5023007;28;20059;-83